sensor_id;sensor_type;location;lat;lon;timestamp;pressure;altitude;pressure_sealevel;temperature;humidity
76060;BME280;64759;52.220;5.170;2023-03-31T00:02:09;100262.41;;;10.95;77.97
76060;BME280;64759;52.220;5.170;2023-03-31T00:04:42;100240.56;;;10.98;77.84
76060;BME280;64759;52.220;5.170;2023-03-31T00:07:12;100244.91;;;10.97;77.56
76060;BME280;64759;52.220;5.170;2023-03-31T00:09:38;100234.88;;;10.94;77.38
76060;BME280;64759;52.220;5.170;2023-03-31T00:12:06;100235.38;;;10.98;77.77
76060;BME280;64759;52.220;5.170;2023-03-31T00:14:31;100228.25;;;11.00;77.65
76060;BME280;64759;52.220;5.170;2023-03-31T00:16:57;100230.94;;;10.82;77.75
76060;BME280;64759;52.220;5.170;2023-03-31T00:19:22;100222.88;;;10.93;77.79
76060;BME280;64759;52.220;5.170;2023-03-31T00:21:51;100220.44;;;10.92;77.84
76060;BME280;64759;52.220;5.170;2023-03-31T00:24:18;100206.84;;;10.90;77.75
76060;BME280;64759;52.220;5.170;2023-03-31T00:26:45;100204.72;;;10.77;78.02
76060;BME280;64759;52.220;5.170;2023-03-31T00:29:12;100197.88;;;10.76;78.33
76060;BME280;64759;52.220;5.170;2023-03-31T00:31:37;100198.22;;;10.73;78.67
76060;BME280;64759;52.220;5.170;2023-03-31T00:34:05;100188.81;;;10.72;78.68
76060;BME280;64759;52.220;5.170;2023-03-31T00:36:34;100180.28;;;10.80;78.33
76060;BME280;64759;52.220;5.170;2023-03-31T00:39:04;100176.56;;;10.82;78.66
76060;BME280;64759;52.220;5.170;2023-03-31T00:41:34;100168.41;;;10.69;79.65
76060;BME280;64759;52.220;5.170;2023-03-31T00:44:13;100153.88;;;10.68;79.82
76060;BME280;64759;52.220;5.170;2023-03-31T00:47:01;100152.75;;;10.79;79.34
76060;BME280;64759;52.220;5.170;2023-03-31T00:49:31;100147.44;;;10.88;79.07
76060;BME280;64759;52.220;5.170;2023-03-31T00:52:18;100141.75;;;10.77;79.95
76060;BME280;64759;52.220;5.170;2023-03-31T00:55:00;100140.63;;;10.87;79.12
76060;BME280;64759;52.220;5.170;2023-03-31T00:57:28;100129.63;;;10.93;78.97
76060;BME280;64759;52.220;5.170;2023-03-31T01:00:03;100130.13;;;10.81;79.57
76060;BME280;64759;52.220;5.170;2023-03-31T01:02:44;100121.66;;;10.63;80.73
76060;BME280;64759;52.220;5.170;2023-03-31T01:05:22;100115.84;;;10.69;80.70
76060;BME280;64759;52.220;5.170;2023-03-31T01:07:50;100113.72;;;10.64;81.16
76060;BME280;64759;52.220;5.170;2023-03-31T01:10:18;100116.00;;;10.75;81.08
76060;BME280;64759;52.220;5.170;2023-03-31T01:12:47;100107.09;;;10.70;83.80
76060;BME280;64759;52.220;5.170;2023-03-31T01:15:13;100099.81;;;10.65;85.97
76060;BME280;64759;52.220;5.170;2023-03-31T01:17:39;100095.59;;;10.64;85.67
76060;BME280;64759;52.220;5.170;2023-03-31T01:29:39;100065.53;;;10.71;85.41
76060;BME280;64759;52.220;5.170;2023-03-31T01:43:31;100040.09;;;10.99;83.73
76060;BME280;64759;52.220;5.170;2023-03-31T01:46:02;100028.13;;;11.06;83.17
76060;BME280;64759;52.220;5.170;2023-03-31T01:48:42;100030.56;;;11.07;83.54
76060;BME280;64759;52.220;5.170;2023-03-31T01:51:15;100015.16;;;11.06;84.04
76060;BME280;64759;52.220;5.170;2023-03-31T01:53:44;100017.44;;;11.17;83.45
76060;BME280;64759;52.220;5.170;2023-03-31T01:59:08;99995.06;;;11.32;82.61
76060;BME280;64759;52.220;5.170;2023-03-31T02:01:56;99992.00;;;11.21;83.10
76060;BME280;64759;52.220;5.170;2023-03-31T02:04:33;99983.06;;;11.39;82.14
76060;BME280;64759;52.220;5.170;2023-03-31T02:07:11;99982.13;;;11.16;83.26
76060;BME280;64759;52.220;5.170;2023-03-31T02:09:42;99978.88;;;11.22;83.61
76060;BME280;64759;52.220;5.170;2023-03-31T02:12:11;99973.84;;;11.29;83.09
76060;BME280;64759;52.220;5.170;2023-03-31T02:14:40;99967.84;;;11.28;82.59
76060;BME280;64759;52.220;5.170;2023-03-31T02:17:10;99960.06;;;11.28;83.06
76060;BME280;64759;52.220;5.170;2023-03-31T02:19:41;99956.53;;;11.21;83.44
76060;BME280;64759;52.220;5.170;2023-03-31T02:22:08;99961.38;;;11.24;83.60
76060;BME280;64759;52.220;5.170;2023-03-31T02:24:36;99938.88;;;11.25;83.28
76060;BME280;64759;52.220;5.170;2023-03-31T02:27:09;99940.63;;;11.32;82.98
76060;BME280;64759;52.220;5.170;2023-03-31T02:29:37;99936.53;;;11.38;83.03
76060;BME280;64759;52.220;5.170;2023-03-31T02:34:39;99926.00;;;11.47;82.60
76060;BME280;64759;52.220;5.170;2023-03-31T02:37:05;99917.13;;;11.42;83.02
76060;BME280;64759;52.220;5.170;2023-03-31T02:39:33;99917.63;;;11.37;83.06
76060;BME280;64759;52.220;5.170;2023-03-31T02:42:00;99904.00;;;11.35;83.47
76060;BME280;64759;52.220;5.170;2023-03-31T02:44:38;99895.25;;;11.36;83.52
76060;BME280;64759;52.220;5.170;2023-03-31T02:47:07;99897.25;;;11.26;84.35
76060;BME280;64759;52.220;5.170;2023-03-31T02:49:34;99895.97;;;11.22;84.83
76060;BME280;64759;52.220;5.170;2023-03-31T02:54:42;99873.00;;;11.11;85.41
76060;BME280;64759;52.220;5.170;2023-03-31T03:00:23;99857.13;;;11.14;85.55
76060;BME280;64759;52.220;5.170;2023-03-31T03:03:11;99848.22;;;11.08;85.82
76060;BME280;64759;52.220;5.170;2023-03-31T03:14:25;99810.38;;;10.99;87.15
76060;BME280;64759;52.220;5.170;2023-03-31T03:19:50;99799.81;;;10.62;89.70
76060;BME280;64759;52.220;5.170;2023-03-31T03:22:16;99797.22;;;10.70;89.16
76060;BME280;64759;52.220;5.170;2023-03-31T03:24:42;99790.22;;;10.79;88.27
76060;BME280;64759;52.220;5.170;2023-03-31T03:27:07;99775.03;;;10.76;88.82
76060;BME280;64759;52.220;5.170;2023-03-31T03:29:33;99774.03;;;10.77;88.81
76060;BME280;64759;52.220;5.170;2023-03-31T03:31:58;99766.28;;;10.77;89.28
76060;BME280;64759;52.220;5.170;2023-03-31T03:34:23;99766.59;;;10.74;89.05
76060;BME280;64759;52.220;5.170;2023-03-31T03:36:49;99748.66;;;10.72;88.64
76060;BME280;64759;52.220;5.170;2023-03-31T03:39:16;99751.94;;;10.58;89.72
76060;BME280;64759;52.220;5.170;2023-03-31T03:41:41;99743.69;;;10.55;89.92
76060;BME280;64759;52.220;5.170;2023-03-31T03:44:06;99733.50;;;10.61;90.14
76060;BME280;64759;52.220;5.170;2023-03-31T03:46:32;99733.97;;;10.65;89.74
76060;BME280;64759;52.220;5.170;2023-03-31T03:48:57;99726.41;;;10.47;90.20
76060;BME280;64759;52.220;5.170;2023-03-31T03:51:23;99713.34;;;10.40;90.11
76060;BME280;64759;52.220;5.170;2023-03-31T03:53:48;99724.03;;;10.37;91.00
76060;BME280;64759;52.220;5.170;2023-03-31T03:56:13;99719.66;;;10.38;90.91
76060;BME280;64759;52.220;5.170;2023-03-31T03:58:39;99717.41;;;10.35;91.26
76060;BME280;64759;52.220;5.170;2023-03-31T04:01:04;99700.06;;;10.43;90.54
76060;BME280;64759;52.220;5.170;2023-03-31T04:03:30;99699.47;;;10.33;91.42
76060;BME280;64759;52.220;5.170;2023-03-31T04:05:56;99695.25;;;10.32;91.40
76060;BME280;64759;52.220;5.170;2023-03-31T04:08:21;99677.00;;;10.26;91.52
76060;BME280;64759;52.220;5.170;2023-03-31T04:10:48;99673.59;;;10.25;92.28
76060;BME280;64759;52.220;5.170;2023-03-31T04:13:18;99674.09;;;10.29;91.70
76060;BME280;64759;52.220;5.170;2023-03-31T04:15:44;99673.75;;;10.32;91.64
76060;BME280;64759;52.220;5.170;2023-03-31T04:18:10;99667.78;;;10.23;91.91
76060;BME280;64759;52.220;5.170;2023-03-31T04:20:47;99668.94;;;10.13;92.93
76060;BME280;64759;52.220;5.170;2023-03-31T04:23:20;99650.03;;;10.04;93.41
76060;BME280;64759;52.220;5.170;2023-03-31T04:25:48;99643.56;;;10.00;93.60
76060;BME280;64759;52.220;5.170;2023-03-31T04:28:14;99634.84;;;10.01;93.02
76060;BME280;64759;52.220;5.170;2023-03-31T04:30:39;99631.78;;;9.98;93.36
76060;BME280;64759;52.220;5.170;2023-03-31T04:33:05;99621.09;;;10.01;93.20
76060;BME280;64759;52.220;5.170;2023-03-31T04:35:31;99615.00;;;9.85;93.71
76060;BME280;64759;52.220;5.170;2023-03-31T04:38:20;99600.94;;;9.88;94.63
76060;BME280;64759;52.220;5.170;2023-03-31T04:40:49;99593.84;;;9.90;93.94
76060;BME280;64759;52.220;5.170;2023-03-31T04:43:15;99588.94;;;9.95;94.27
76060;BME280;64759;52.220;5.170;2023-03-31T04:45:41;99583.16;;;9.93;93.94
76060;BME280;64759;52.220;5.170;2023-03-31T04:48:07;99566.34;;;9.89;93.89
76060;BME280;64759;52.220;5.170;2023-03-31T04:50:32;99565.34;;;9.98;93.81
76060;BME280;64759;52.220;5.170;2023-03-31T04:52:58;99563.13;;;9.87;94.00
76060;BME280;64759;52.220;5.170;2023-03-31T04:55:23;99550.88;;;9.73;94.40
76060;BME280;64759;52.220;5.170;2023-03-31T04:57:49;99555.91;;;9.66;94.02
76060;BME280;64759;52.220;5.170;2023-03-31T05:00:16;99535.88;;;9.68;94.20
76060;BME280;64759;52.220;5.170;2023-03-31T05:02:42;99530.38;;;9.71;94.15
76060;BME280;64759;52.220;5.170;2023-03-31T05:05:08;99527.44;;;9.82;94.08
76060;BME280;64759;52.220;5.170;2023-03-31T05:07:34;99526.31;;;9.85;93.37
76060;BME280;64759;52.220;5.170;2023-03-31T05:10:00;99535.34;;;9.89;93.46
76060;BME280;64759;52.220;5.170;2023-03-31T05:12:25;99523.53;;;9.86;93.68
76060;BME280;64759;52.220;5.170;2023-03-31T05:14:51;99519.31;;;9.94;93.86
76060;BME280;64759;52.220;5.170;2023-03-31T05:17:16;99512.03;;;9.97;93.66
76060;BME280;64759;52.220;5.170;2023-03-31T05:19:43;99506.56;;;9.92;93.50
76060;BME280;64759;52.220;5.170;2023-03-31T05:22:09;99509.09;;;10.00;93.81
76060;BME280;64759;52.220;5.170;2023-03-31T05:24:35;99502.34;;;9.91;93.92
76060;BME280;64759;52.220;5.170;2023-03-31T05:27:00;99496.84;;;9.94;93.52
76060;BME280;64759;52.220;5.170;2023-03-31T05:29:26;99495.28;;;9.85;93.66
76060;BME280;64759;52.220;5.170;2023-03-31T05:31:51;99497.00;;;9.93;93.50
76060;BME280;64759;52.220;5.170;2023-03-31T05:34:18;99488.16;;;9.87;93.53
76060;BME280;64759;52.220;5.170;2023-03-31T05:36:44;99486.00;;;9.99;93.49
76060;BME280;64759;52.220;5.170;2023-03-31T05:39:09;99486.66;;;9.93;93.00
76060;BME280;64759;52.220;5.170;2023-03-31T05:41:35;99493.47;;;9.94;93.25
76060;BME280;64759;52.220;5.170;2023-03-31T05:44:01;99479.69;;;10.01;93.38
76060;BME280;64759;52.220;5.170;2023-03-31T05:46:27;99482.31;;;9.93;93.25
76060;BME280;64759;52.220;5.170;2023-03-31T05:48:52;99468.50;;;10.09;93.04
76060;BME280;64759;52.220;5.170;2023-03-31T05:51:19;99475.31;;;10.02;93.30
76060;BME280;64759;52.220;5.170;2023-03-31T05:53:44;99471.22;;;10.15;92.59
76060;BME280;64759;52.220;5.170;2023-03-31T05:56:10;99458.66;;;10.04;92.86
76060;BME280;64759;52.220;5.170;2023-03-31T05:58:36;99458.13;;;10.17;92.37
76060;BME280;64759;52.220;5.170;2023-03-31T06:01:11;99454.75;;;10.16;92.11
76060;BME280;64759;52.220;5.170;2023-03-31T06:03:40;99452.50;;;10.13;92.55
76060;BME280;64759;52.220;5.170;2023-03-31T06:06:07;99448.75;;;10.08;92.47
76060;BME280;64759;52.220;5.170;2023-03-31T06:08:36;99446.03;;;10.09;92.39
76060;BME280;64759;52.220;5.170;2023-03-31T06:11:10;99431.31;;;10.10;92.26
76060;BME280;64759;52.220;5.170;2023-03-31T06:13:37;99438.41;;;10.08;92.04
76060;BME280;64759;52.220;5.170;2023-03-31T06:16:03;99441.09;;;10.22;92.00
76060;BME280;64759;52.220;5.170;2023-03-31T06:18:31;99434.63;;;10.26;92.02
76060;BME280;64759;52.220;5.170;2023-03-31T06:20:58;99430.81;;;10.37;91.58
76060;BME280;64759;52.220;5.170;2023-03-31T06:23:24;99435.25;;;10.28;91.65
76060;BME280;64759;52.220;5.170;2023-03-31T06:25:50;99435.25;;;10.28;91.09
76060;BME280;64759;52.220;5.170;2023-03-31T06:28:16;99433.53;;;10.43;90.51
76060;BME280;64759;52.220;5.170;2023-03-31T06:30:41;99430.13;;;10.43;90.03
76060;BME280;64759;52.220;5.170;2023-03-31T06:33:07;99422.28;;;10.36;90.70
76060;BME280;64759;52.220;5.170;2023-03-31T06:35:32;99424.06;;;10.36;90.55
76060;BME280;64759;52.220;5.170;2023-03-31T06:38:02;99425.78;;;10.43;90.18
76060;BME280;64759;52.220;5.170;2023-03-31T06:40:27;99419.41;;;10.31;90.47
76060;BME280;64759;52.220;5.170;2023-03-31T06:42:53;99418.59;;;10.31;90.65
76060;BME280;64759;52.220;5.170;2023-03-31T06:45:20;99420.25;;;10.46;90.35
76060;BME280;64759;52.220;5.170;2023-03-31T06:47:45;99420.78;;;10.57;88.37
76060;BME280;64759;52.220;5.170;2023-03-31T06:50:11;99416.00;;;10.54;88.36
76060;BME280;64759;52.220;5.170;2023-03-31T06:52:36;99415.00;;;10.55;88.33
76060;BME280;64759;52.220;5.170;2023-03-31T06:55:02;99414.56;;;10.51;88.75
76060;BME280;64759;52.220;5.170;2023-03-31T06:57:28;99395.56;;;10.59;88.73
76060;BME280;64759;52.220;5.170;2023-03-31T06:59:54;99397.44;;;10.65;88.05
76060;BME280;64759;52.220;5.170;2023-03-31T07:02:20;99396.91;;;10.69;87.50
76060;BME280;64759;52.220;5.170;2023-03-31T07:04:45;99407.06;;;10.56;88.66
76060;BME280;64759;52.220;5.170;2023-03-31T07:07:11;99409.13;;;10.61;87.94
76060;BME280;64759;52.220;5.170;2023-03-31T07:09:36;99402.91;;;10.70;87.21
76060;BME280;64759;52.220;5.170;2023-03-31T07:12:02;99395.03;;;10.63;87.96
76060;BME280;64759;52.220;5.170;2023-03-31T07:14:30;99394.69;;;10.66;88.28
76060;BME280;64759;52.220;5.170;2023-03-31T07:16:55;99394.69;;;10.66;88.69
76060;BME280;64759;52.220;5.170;2023-03-31T07:19:21;99398.50;;;10.56;88.58
76060;BME280;64759;52.220;5.170;2023-03-31T07:21:47;99389.84;;;10.63;89.10
76060;BME280;64759;52.220;5.170;2023-03-31T07:24:12;99387.53;;;10.54;88.87
76060;BME280;64759;52.220;5.170;2023-03-31T07:26:37;99386.94;;;10.66;88.77
76060;BME280;64759;52.220;5.170;2023-03-31T07:29:03;99384.34;;;10.66;88.33
76060;BME280;64759;52.220;5.170;2023-03-31T07:31:28;99390.66;;;10.64;89.23
76060;BME280;64759;52.220;5.170;2023-03-31T07:33:54;99378.59;;;10.56;89.38
76060;BME280;64759;52.220;5.170;2023-03-31T07:36:20;99384.06;;;10.61;89.63
76060;BME280;64759;52.220;5.170;2023-03-31T07:38:46;99379.75;;;10.54;89.76
76060;BME280;64759;52.220;5.170;2023-03-31T07:41:15;99387.34;;;10.55;89.93
76060;BME280;64759;52.220;5.170;2023-03-31T07:43:41;99370.63;;;10.43;90.58
76060;BME280;64759;52.220;5.170;2023-03-31T07:46:16;99371.72;;;10.48;90.34
76060;BME280;64759;52.220;5.170;2023-03-31T07:48:42;99376.16;;;10.55;90.32
76060;BME280;64759;52.220;5.170;2023-03-31T07:51:08;99383.66;;;10.49;90.97
76060;BME280;64759;52.220;5.170;2023-03-31T07:53:35;99375.59;;;10.44;90.75
76060;BME280;64759;52.220;5.170;2023-03-31T07:56:02;99367.22;;;10.42;90.60
76060;BME280;64759;52.220;5.170;2023-03-31T07:58:27;99368.66;;;10.45;91.16
76060;BME280;64759;52.220;5.170;2023-03-31T08:00:53;99363.09;;;10.33;91.43
76060;BME280;64759;52.220;5.170;2023-03-31T08:03:18;99356.59;;;10.37;91.30
76060;BME280;64759;52.220;5.170;2023-03-31T08:05:44;99362.19;;;10.49;91.51
76060;BME280;64759;52.220;5.170;2023-03-31T08:08:09;99352.97;;;10.46;91.06
76060;BME280;64759;52.220;5.170;2023-03-31T08:10:35;99351.69;;;10.42;91.27
76060;BME280;64759;52.220;5.170;2023-03-31T08:13:00;99348.94;;;10.44;92.03
76060;BME280;64759;52.220;5.170;2023-03-31T08:15:26;99349.91;;;10.43;91.83
76060;BME280;64759;52.220;5.170;2023-03-31T08:17:51;99359.88;;;10.69;91.78
76060;BME280;64759;52.220;5.170;2023-03-31T08:20:16;99354.72;;;10.83;91.15
76060;BME280;64759;52.220;5.170;2023-03-31T08:22:42;99340.78;;;10.99;90.81
76060;BME280;64759;52.220;5.170;2023-03-31T08:25:08;99344.09;;;11.07;90.97
76060;BME280;64759;52.220;5.170;2023-03-31T08:27:35;99342.28;;;11.23;90.43
76060;BME280;64759;52.220;5.170;2023-03-31T08:30:00;99332.41;;;11.33;89.88
76060;BME280;64759;52.220;5.170;2023-03-31T08:32:31;99322.16;;;11.39;88.95
76060;BME280;64759;52.220;5.170;2023-03-31T08:34:57;99333.41;;;11.46;89.05
76060;BME280;64759;52.220;5.170;2023-03-31T08:37:22;99324.16;;;11.58;88.44
76060;BME280;64759;52.220;5.170;2023-03-31T08:39:48;99325.50;;;11.69;88.52
76060;BME280;64759;52.220;5.170;2023-03-31T08:42:16;99326.13;;;11.71;88.92
76060;BME280;64759;52.220;5.170;2023-03-31T08:45:20;99321.28;;;11.68;88.13
76060;BME280;64759;52.220;5.170;2023-03-31T08:47:49;99313.41;;;11.76;88.04
76060;BME280;64759;52.220;5.170;2023-03-31T08:50:19;99314.22;;;11.76;88.04
76060;BME280;64759;52.220;5.170;2023-03-31T08:53:03;99314.16;;;11.55;87.54
76060;BME280;64759;52.220;5.170;2023-03-31T08:56:01;99304.78;;;11.54;87.07
76060;BME280;64759;52.220;5.170;2023-03-31T08:58:38;99310.31;;;11.51;87.24
76060;BME280;64759;52.220;5.170;2023-03-31T09:06:35;99304.09;;;11.31;88.01
76060;BME280;64759;52.220;5.170;2023-03-31T09:09:06;99311.88;;;11.31;87.74
76060;BME280;64759;52.220;5.170;2023-03-31T09:11:57;99303.94;;;11.18;88.43
76060;BME280;64759;52.220;5.170;2023-03-31T09:14:33;99300.06;;;11.07;88.89
76060;BME280;64759;52.220;5.170;2023-03-31T09:17:20;99299.25;;;11.07;88.88
76060;BME280;64759;52.220;5.170;2023-03-31T09:20:00;99290.59;;;11.00;89.35
76060;BME280;64759;52.220;5.170;2023-03-31T09:22:35;99293.50;;;11.11;89.40
76060;BME280;64759;52.220;5.170;2023-03-31T09:25:09;99288.84;;;11.22;89.72
76060;BME280;64759;52.220;5.170;2023-03-31T09:27:41;99286.69;;;11.40;89.19
76060;BME280;64759;52.220;5.170;2023-03-31T09:30:23;99275.19;;;11.49;88.05
76060;BME280;64759;52.220;5.170;2023-03-31T09:35:35;99272.66;;;11.70;87.79
76060;BME280;64759;52.220;5.170;2023-03-31T09:38:01;99267.31;;;11.99;87.88
76060;BME280;64759;52.220;5.170;2023-03-31T09:40:28;99254.94;;;12.22;87.47
76060;BME280;64759;52.220;5.170;2023-03-31T09:43:06;99269.59;;;12.36;86.39
76060;BME280;64759;52.220;5.170;2023-03-31T09:45:32;99263.78;;;12.62;85.19
76060;BME280;64759;52.220;5.170;2023-03-31T09:48:22;99264.34;;;12.58;84.15
76060;BME280;64759;52.220;5.170;2023-03-31T09:51:02;99254.81;;;12.71;83.31
76060;BME280;64759;52.220;5.170;2023-03-31T09:59:15;99253.34;;;12.90;80.90
76060;BME280;64759;52.220;5.170;2023-03-31T10:01:43;99252.09;;;12.86;81.12
76060;BME280;64759;52.220;5.170;2023-03-31T10:04:26;99251.50;;;12.90;80.66
76060;BME280;64759;52.220;5.170;2023-03-31T10:06:53;99254.47;;;12.81;78.92
76060;BME280;64759;52.220;5.170;2023-03-31T10:09:20;99235.31;;;12.88;79.61
76060;BME280;64759;52.220;5.170;2023-03-31T10:12:05;99251.72;;;12.89;79.27
76060;BME280;64759;52.220;5.170;2023-03-31T10:14:44;99244.88;;;12.75;79.21
76060;BME280;64759;52.220;5.170;2023-03-31T10:17:14;99234.63;;;12.67;79.63
76060;BME280;64759;52.220;5.170;2023-03-31T10:19:50;99234.44;;;12.68;79.62
76060;BME280;64759;52.220;5.170;2023-03-31T10:24:45;99232.72;;;12.82;78.57
76060;BME280;64759;52.220;5.170;2023-03-31T10:27:21;99235.91;;;12.84;78.54
76060;BME280;64759;52.220;5.170;2023-03-31T10:29:51;99238.75;;;12.95;78.51
76060;BME280;64759;52.220;5.170;2023-03-31T10:32:22;99220.31;;;12.84;78.81
76060;BME280;64759;52.220;5.170;2023-03-31T10:34:49;99217.16;;;12.95;76.78
76060;BME280;64759;52.220;5.170;2023-03-31T10:37:18;99219.78;;;13.01;77.34
76060;BME280;64759;52.220;5.170;2023-03-31T10:39:47;99210.25;;;13.08;76.49
76060;BME280;64759;52.220;5.170;2023-03-31T10:42:21;99213.59;;;13.02;76.07
76060;BME280;64759;52.220;5.170;2023-03-31T10:44:47;99223.38;;;12.94;76.45
76060;BME280;64759;52.220;5.170;2023-03-31T10:49:40;99211.66;;;13.11;75.16
76060;BME280;64759;52.220;5.170;2023-03-31T10:52:16;99211.66;;;13.18;74.90
76060;BME280;64759;52.220;5.170;2023-03-31T10:54:57;99213.28;;;13.19;75.58
76060;BME280;64759;52.220;5.170;2023-03-31T10:57:52;99219.03;;;13.07;75.85
76060;BME280;64759;52.220;5.170;2023-03-31T11:06:02;99202.69;;;12.73;77.23
76060;BME280;64759;52.220;5.170;2023-03-31T11:08:39;99213.72;;;12.81;75.41
76060;BME280;64759;52.220;5.170;2023-03-31T11:14:09;99211.56;;;12.98;75.45
76060;BME280;64759;52.220;5.170;2023-03-31T11:17:10;99207.41;;;12.97;76.20
76060;BME280;64759;52.220;5.170;2023-03-31T11:20:36;99216.16;;;12.89;76.41
76060;BME280;64759;52.220;5.170;2023-03-31T11:23:17;99225.50;;;12.77;76.83
76060;BME280;64759;52.220;5.170;2023-03-31T11:25:52;99219.69;;;12.75;77.94
76060;BME280;64759;52.220;5.170;2023-03-31T11:28:33;99197.47;;;12.66;77.83
76060;BME280;64759;52.220;5.170;2023-03-31T11:34:06;99215.75;;;12.45;79.79
76060;BME280;64759;52.220;5.170;2023-03-31T11:42:19;99191.31;;;12.33;82.20
76060;BME280;64759;52.220;5.170;2023-03-31T11:44:50;99200.53;;;12.35;81.21
76060;BME280;64759;52.220;5.170;2023-03-31T11:47:25;99200.88;;;12.26;81.56
76060;BME280;64759;52.220;5.170;2023-03-31T11:49:58;99198.41;;;12.18;82.44
76060;BME280;64759;52.220;5.170;2023-03-31T11:52:30;99199.41;;;12.17;82.43
76060;BME280;64759;52.220;5.170;2023-03-31T11:55:02;99190.31;;;12.00;83.74
76060;BME280;64759;52.220;5.170;2023-03-31T11:57:39;99200.06;;;11.98;84.19
76060;BME280;64759;52.220;5.170;2023-03-31T12:05:09;99174.81;;;12.06;82.44
76060;BME280;64759;52.220;5.170;2023-03-31T12:07:53;99176.66;;;12.19;81.63
76060;BME280;64759;52.220;5.170;2023-03-31T12:10:33;99170.13;;;12.29;81.59
76060;BME280;64759;52.220;5.170;2023-03-31T12:16:08;99173.03;;;12.48;81.03
76060;BME280;64759;52.220;5.170;2023-03-31T12:18:52;99167.78;;;12.41;80.39
76060;BME280;64759;52.220;5.170;2023-03-31T12:21:21;99178.56;;;12.38;80.54
76060;BME280;64759;52.220;5.170;2023-03-31T12:23:47;99172.38;;;12.39;80.92
76060;BME280;64759;52.220;5.170;2023-03-31T12:26:43;99160.19;;;12.33;80.52
76060;BME280;64759;52.220;5.170;2023-03-31T12:29:30;99159.78;;;12.36;79.33
76060;BME280;64759;52.220;5.170;2023-03-31T12:32:00;99167.97;;;12.33;80.00
76060;BME280;64759;52.220;5.170;2023-03-31T12:34:28;99157.19;;;12.36;78.48
76060;BME280;64759;52.220;5.170;2023-03-31T12:37:31;99151.44;;;12.40;79.46
76060;BME280;64759;52.220;5.170;2023-03-31T12:48:09;99139.19;;;12.28;81.61
76060;BME280;64759;52.220;5.170;2023-03-31T12:55:49;99139.22;;;12.41;79.80
76060;BME280;64759;52.220;5.170;2023-03-31T13:01:04;99131.41;;;12.28;78.90
76060;BME280;64759;52.220;5.170;2023-03-31T13:06:01;99134.59;;;12.30;80.28
76060;BME280;64759;52.220;5.170;2023-03-31T13:11:16;99110.47;;;12.36;79.96
76060;BME280;64759;52.220;5.170;2023-03-31T13:13:56;99105.25;;;12.29;80.90
76060;BME280;64759;52.220;5.170;2023-03-31T13:16:22;99099.69;;;12.32;79.90
76060;BME280;64759;52.220;5.170;2023-03-31T13:18:52;99091.31;;;12.43;79.79
76060;BME280;64759;52.220;5.170;2023-03-31T13:21:19;99093.53;;;12.40;79.57
76060;BME280;64759;52.220;5.170;2023-03-31T13:23:45;99097.94;;;12.46;79.43
76060;BME280;64759;52.220;5.170;2023-03-31T13:34:34;99097.16;;;12.11;80.60
76060;BME280;64759;52.220;5.170;2023-03-31T13:37:20;99088.00;;;12.09;82.10
76060;BME280;64759;52.220;5.170;2023-03-31T13:51:33;99063.72;;;12.23;80.35
76060;BME280;64759;52.220;5.170;2023-03-31T13:57:04;99061.78;;;12.38;79.55
76060;BME280;64759;52.220;5.170;2023-03-31T14:03:10;99072.31;;;12.23;79.16
76060;BME280;64759;52.220;5.170;2023-03-31T14:05:56;99061.94;;;12.30;79.42
76060;BME280;64759;52.220;5.170;2023-03-31T14:08:52;99057.56;;;12.30;79.42
76060;BME280;64759;52.220;5.170;2023-03-31T14:11:31;99062.16;;;12.28;79.44
76060;BME280;64759;52.220;5.170;2023-03-31T14:14:09;99055.34;;;12.34;78.86
76060;BME280;64759;52.220;5.170;2023-03-31T14:16:41;99057.34;;;12.25;79.33
76060;BME280;64759;52.220;5.170;2023-03-31T14:28:03;99054.16;;;12.30;78.95
76060;BME280;64759;52.220;5.170;2023-03-31T14:30:44;99053.56;;;12.34;79.32
76060;BME280;64759;52.220;5.170;2023-03-31T14:38:27;99041.50;;;12.14;80.16
76060;BME280;64759;52.220;5.170;2023-03-31T14:40:53;99041.13;;;12.17;79.66
76060;BME280;64759;52.220;5.170;2023-03-31T14:43:38;99044.16;;;12.27;79.22
76060;BME280;64759;52.220;5.170;2023-03-31T14:46:08;99041.78;;;12.25;77.94
76060;BME280;64759;52.220;5.170;2023-03-31T14:48:40;99050.56;;;12.31;78.25
76060;BME280;64759;52.220;5.170;2023-03-31T14:51:11;99037.19;;;12.34;78.48
76060;BME280;64759;52.220;5.170;2023-03-31T14:53:38;99042.81;;;12.37;77.94
76060;BME280;64759;52.220;5.170;2023-03-31T14:56:06;99040.59;;;12.34;78.51
76060;BME280;64759;52.220;5.170;2023-03-31T14:58:34;99046.16;;;12.31;79.48
76060;BME280;64759;52.220;5.170;2023-03-31T15:01:02;99051.56;;;12.23;80.76
76060;BME280;64759;52.220;5.170;2023-03-31T15:03:30;99049.94;;;12.22;81.08
76060;BME280;64759;52.220;5.170;2023-03-31T15:05:58;99048.50;;;12.13;81.61
76060;BME280;64759;52.220;5.170;2023-03-31T15:08:26;99052.22;;;11.98;82.17
76060;BME280;64759;52.220;5.170;2023-03-31T15:10:58;99042.41;;;11.87;81.15
76060;BME280;64759;52.220;5.170;2023-03-31T15:13:42;99039.72;;;11.73;82.30
76060;BME280;64759;52.220;5.170;2023-03-31T15:16:41;99039.91;;;11.72;82.17
76060;BME280;64759;52.220;5.170;2023-03-31T15:19:21;99043.44;;;11.64;82.52
76060;BME280;64759;52.220;5.170;2023-03-31T15:24:26;99036.38;;;11.52;83.96
76060;BME280;64759;52.220;5.170;2023-03-31T15:27:03;99032.03;;;11.59;83.49
76060;BME280;64759;52.220;5.170;2023-03-31T15:29:37;99028.03;;;11.56;83.72
76060;BME280;64759;52.220;5.170;2023-03-31T15:32:12;99025.34;;;11.43;84.56
76060;BME280;64759;52.220;5.170;2023-03-31T15:34:38;99030.59;;;11.50;84.97
76060;BME280;64759;52.220;5.170;2023-03-31T15:37:05;99029.22;;;11.54;84.27
76060;BME280;64759;52.220;5.170;2023-03-31T15:39:32;99033.09;;;11.37;85.77
76060;BME280;64759;52.220;5.170;2023-03-31T15:42:01;99023.00;;;11.48;85.76
76060;BME280;64759;52.220;5.170;2023-03-31T15:44:45;99020.84;;;11.52;84.84
76060;BME280;64759;52.220;5.170;2023-03-31T15:47:22;99024.16;;;11.46;84.79
76060;BME280;64759;52.220;5.170;2023-03-31T15:49:56;99015.78;;;11.44;84.60
76060;BME280;64759;52.220;5.170;2023-03-31T15:52:46;99020.31;;;11.35;85.27